sensor_id;sensor_type;location;lat;lon;timestamp;pressure;altitude;pressure_sealevel;temperature;humidity
11985;BME280;6052;53.246;10.368;2023-03-26T00:00:08;99736.16;;;10.06;100.00
11985;BME280;6052;53.246;10.368;2023-03-26T00:02:40;99725.25;;;10.17;100.00
11985;BME280;6052;53.246;10.368;2023-03-26T00:05:13;99724.34;;;10.07;100.00
11985;BME280;6052;53.246;10.368;2023-03-26T00:07:42;99739.81;;;10.00;100.00
11985;BME280;6052;53.246;10.368;2023-03-26T00:10:12;99738.66;;;10.17;100.00
11985;BME280;6052;53.246;10.368;2023-03-26T00:12:42;99737.28;;;10.15;100.00
11985;BME280;6052;53.246;10.368;2023-03-26T00:15:11;99742.06;;;10.08;100.00
11985;BME280;6052;53.246;10.368;2023-03-26T00:17:40;99751.22;;;10.17;100.00
11985;BME280;6052;53.246;10.368;2023-03-26T00:20:14;99747.47;;;10.13;100.00
11985;BME280;6052;53.246;10.368;2023-03-26T00:22:44;99751.22;;;10.17;100.00
11985;BME280;6052;53.246;10.368;2023-03-26T00:25:13;99761.97;;;10.17;100.00
11985;BME280;6052;53.246;10.368;2023-03-26T00:27:42;99755.56;;;10.18;100.00
11985;BME280;6052;53.246;10.368;2023-03-26T00:30:12;99769.28;;;9.95;100.00
11985;BME280;6052;53.246;10.368;2023-03-26T00:32:42;99757.59;;;10.06;100.00
11985;BME280;6052;53.246;10.368;2023-03-26T00:35:21;99769.44;;;10.10;100.00
11985;BME280;6052;53.246;10.368;2023-03-26T00:37:51;99772.34;;;10.08;100.00
11985;BME280;6052;53.246;10.368;2023-03-26T00:40:20;99770.56;;;9.87;100.00
11985;BME280;6052;53.246;10.368;2023-03-26T00:42:50;99771.84;;;10.11;100.00
11985;BME280;6052;53.246;10.368;2023-03-26T00:45:19;99773.25;;;10.19;100.00
11985;BME280;6052;53.246;10.368;2023-03-26T00:47:49;99771.56;;;10.08;100.00
11985;BME280;6052;53.246;10.368;2023-03-26T00:50:18;99772.50;;;9.97;100.00
11985;BME280;6052;53.246;10.368;2023-03-26T00:52:50;99777.19;;;10.06;100.00
11985;BME280;6052;53.246;10.368;2023-03-26T00:55:21;99786.75;;;10.02;100.00
11985;BME280;6052;53.246;10.368;2023-03-26T00:57:50;99779.41;;;9.88;100.00
11985;BME280;6052;53.246;10.368;2023-03-26T01:00:28;99781.50;;;10.12;100.00
11985;BME280;6052;53.246;10.368;2023-03-26T01:03:05;99779.22;;;9.99;100.00
11985;BME280;6052;53.246;10.368;2023-03-26T01:05:44;99778.69;;;9.97;100.00
11985;BME280;6052;53.246;10.368;2023-03-26T01:08:25;99786.97;;;9.96;100.00
11985;BME280;6052;53.246;10.368;2023-03-26T01:10:57;99786.75;;;10.02;100.00
11985;BME280;6052;53.246;10.368;2023-03-26T01:13:35;99790.50;;;10.01;100.00
11985;BME280;6052;53.246;10.368;2023-03-26T01:16:13;99798.31;;;10.03;100.00
11985;BME280;6052;53.246;10.368;2023-03-26T01:18:47;99786.84;;;10.07;100.00
11985;BME280;6052;53.246;10.368;2023-03-26T01:21:20;99792.25;;;10.12;100.00
11985;BME280;6052;53.246;10.368;2023-03-26T01:23:58;99790.69;;;9.90;100.00
11985;BME280;6052;53.246;10.368;2023-03-26T01:26:39;99798.50;;;9.96;100.00
11985;BME280;6052;53.246;10.368;2023-03-26T01:29:17;99794.47;;;9.94;100.00
11985;BME280;6052;53.246;10.368;2023-03-26T01:31:55;99792.31;;;9.96;100.00
11985;BME280;6052;53.246;10.368;2023-03-26T01:34:32;99799.84;;;9.94;100.00
11985;BME280;6052;53.246;10.368;2023-03-26T01:37:11;99805.59;;;9.81;100.00
11985;BME280;6052;53.246;10.368;2023-03-26T01:39:49;99810.63;;;9.72;100.00
11985;BME280;6052;53.246;10.368;2023-03-26T01:42:28;99797.84;;;9.84;100.00
11985;BME280;6052;53.246;10.368;2023-03-26T01:45:06;99803.41;;;9.78;100.00
11985;BME280;6052;53.246;10.368;2023-03-26T01:47:38;99810.91;;;9.76;100.00
11985;BME280;6052;53.246;10.368;2023-03-26T01:50:09;99815.81;;;9.84;100.00
11985;BME280;6052;53.246;10.368;2023-03-26T01:52:39;99814.13;;;9.78;100.00
11985;BME280;6052;53.246;10.368;2023-03-26T01:55:11;99824.97;;;9.88;100.00
11985;BME280;6052;53.246;10.368;2023-03-26T01:57:51;99813.47;;;9.92;100.00
11985;BME280;6052;53.246;10.368;2023-03-26T02:00:27;99816.03;;;9.77;100.00
11985;BME280;6052;53.246;10.368;2023-03-26T02:03:06;99823.75;;;9.74;100.00
11985;BME280;6052;53.246;10.368;2023-03-26T02:05:49;99825.53;;;9.90;100.00
11985;BME280;6052;53.246;10.368;2023-03-26T02:08:23;99827.66;;;9.88;100.00
11985;BME280;6052;53.246;10.368;2023-03-26T02:11:05;99819.78;;;9.76;100.00
11985;BME280;6052;53.246;10.368;2023-03-26T02:13:38;99833.81;;;9.88;100.00
11985;BME280;6052;53.246;10.368;2023-03-26T02:16:10;99831.69;;;9.90;100.00
11985;BME280;6052;53.246;10.368;2023-03-26T02:18:43;99833.13;;;9.98;100.00
11985;BME280;6052;53.246;10.368;2023-03-26T02:21:14;99831.28;;;10.03;100.00
11985;BME280;6052;53.246;10.368;2023-03-26T02:23:48;99829.47;;;9.82;100.00
11985;BME280;6052;53.246;10.368;2023-03-26T02:26:26;99824.16;;;9.87;100.00
11985;BME280;6052;53.246;10.368;2023-03-26T02:28:55;99818.56;;;9.89;100.00
11985;BME280;6052;53.246;10.368;2023-03-26T02:31:25;99815.09;;;9.93;100.00
11985;BME280;6052;53.246;10.368;2023-03-26T02:33:55;99809.94;;;9.87;100.00
11985;BME280;6052;53.246;10.368;2023-03-26T02:36:25;99832.75;;;9.89;100.00
11985;BME280;6052;53.246;10.368;2023-03-26T02:38:56;99832.75;;;9.89;100.00
11985;BME280;6052;53.246;10.368;2023-03-26T02:41:28;99826.97;;;10.02;100.00
11985;BME280;6052;53.246;10.368;2023-03-26T02:43:57;99825.97;;;9.82;100.00
11985;BME280;6052;53.246;10.368;2023-03-26T02:46:27;99825.13;;;9.76;100.00
11985;BME280;6052;53.246;10.368;2023-03-26T02:48:56;99835.69;;;9.88;100.00
11985;BME280;6052;53.246;10.368;2023-03-26T02:51:26;99837.56;;;9.87;100.00
11985;BME280;6052;53.246;10.368;2023-03-26T02:53:55;99841.22;;;9.76;100.00
11985;BME280;6052;53.246;10.368;2023-03-26T02:56:24;99840.78;;;9.89;100.00
11985;BME280;6052;53.246;10.368;2023-03-26T02:58:56;99838.91;;;9.90;100.00
11985;BME280;6052;53.246;10.368;2023-03-26T03:01:26;99839.47;;;9.92;100.00
11985;BME280;6052;53.246;10.368;2023-03-26T03:03:56;99832.53;;;9.96;100.00
11985;BME280;6052;53.246;10.368;2023-03-26T03:06:26;99838.91;;;9.90;100.00
11985;BME280;6052;53.246;10.368;2023-03-26T03:08:56;99840.03;;;9.94;100.00
11985;BME280;6052;53.246;10.368;2023-03-26T03:11:28;99845.41;;;9.94;100.00
11985;BME280;6052;53.246;10.368;2023-03-26T03:14:00;99835.84;;;9.76;100.00
11985;BME280;6052;53.246;10.368;2023-03-26T03:16:30;99836.69;;;9.82;100.00
11985;BME280;6052;53.246;10.368;2023-03-26T03:18:59;99830.97;;;9.73;100.00
11985;BME280;6052;53.246;10.368;2023-03-26T03:21:29;99831.56;;;9.80;100.00
11985;BME280;6052;53.246;10.368;2023-03-26T03:23:58;99830.84;;;9.85;100.00
11985;BME280;6052;53.246;10.368;2023-03-26T03:26:27;99824.91;;;9.83;100.00
11985;BME280;6052;53.246;10.368;2023-03-26T03:29:00;99820.25;;;9.73;100.00
11985;BME280;6052;53.246;10.368;2023-03-26T03:31:39;99828.59;;;9.77;100.00
11985;BME280;6052;53.246;10.368;2023-03-26T03:34:09;99821.56;;;9.71;100.00
11985;BME280;6052;53.246;10.368;2023-03-26T03:36:38;99822.69;;;9.75;100.00
11985;BME280;6052;53.246;10.368;2023-03-26T03:39:08;99815.50;;;9.80;100.00
11985;BME280;6052;53.246;10.368;2023-03-26T03:41:37;99822.88;;;9.68;100.00
11985;BME280;6052;53.246;10.368;2023-03-26T03:44:09;99817.19;;;9.60;100.00
11985;BME280;6052;53.246;10.368;2023-03-26T03:46:38;99816.72;;;9.68;100.00
11985;BME280;6052;53.246;10.368;2023-03-26T03:49:07;99816.47;;;9.69;100.00
11985;BME280;6052;53.246;10.368;2023-03-26T03:51:37;99816.56;;;9.79;100.00
11985;BME280;6052;53.246;10.368;2023-03-26T03:54:06;99821.84;;;9.48;100.00
11985;BME280;6052;53.246;10.368;2023-03-26T03:56:36;99821.28;;;9.67;100.00
11985;BME280;6052;53.246;10.368;2023-03-26T03:59:08;99811.56;;;9.61;100.00
11985;BME280;6052;53.246;10.368;2023-03-26T04:01:38;99820.88;;;9.54;100.00
11985;BME280;6052;53.246;10.368;2023-03-26T04:04:08;99814.69;;;9.53;100.00
11985;BME280;6052;53.246;10.368;2023-03-26T04:06:38;99816.50;;;9.48;100.00
11985;BME280;6052;53.246;10.368;2023-03-26T04:09:07;99821.38;;;9.51;100.00
11985;BME280;6052;53.246;10.368;2023-03-26T04:11:37;99823.59;;;9.59;100.00
11985;BME280;6052;53.246;10.368;2023-03-26T04:14:09;99821.84;;;9.48;100.00
11985;BME280;6052;53.246;10.368;2023-03-26T04:16:38;99817.19;;;9.60;100.00
11985;BME280;6052;53.246;10.368;2023-03-26T04:19:07;99816.50;;;9.48;100.00
11985;BME280;6052;53.246;10.368;2023-03-26T04:21:37;99813.94;;;9.58;100.00
11985;BME280;6052;53.246;10.368;2023-03-26T04:24:08;99815.50;;;9.54;100.00
11985;BME280;6052;53.246;10.368;2023-03-26T04:26:38;99804.81;;;9.54;100.00
11985;BME280;6052;53.246;10.368;2023-03-26T04:29:10;99809.72;;;9.40;100.00
11985;BME280;6052;53.246;10.368;2023-03-26T04:31:46;99811.22;;;9.31;100.00
11985;BME280;6052;53.246;10.368;2023-03-26T04:34:19;99808.53;;;9.31;100.00
11985;BME280;6052;53.246;10.368;2023-03-26T04:36:55;99813.03;;;9.26;100.00
11985;BME280;6052;53.246;10.368;2023-03-26T04:39:27;99810.03;;;9.44;100.00
11985;BME280;6052;53.246;10.368;2023-03-26T04:42:01;99812.63;;;9.39;100.00
11985;BME280;6052;53.246;10.368;2023-03-26T04:44:33;99816.88;;;9.56;100.00
11985;BME280;6052;53.246;10.368;2023-03-26T04:47:05;99813.69;;;9.59;100.00
11985;BME280;6052;53.246;10.368;2023-03-26T04:49:37;99817.88;;;9.50;100.00
11985;BME280;6052;53.246;10.368;2023-03-26T04:52:09;99820.81;;;9.49;100.00
11985;BME280;6052;53.246;10.368;2023-03-26T04:54:40;99821.50;;;9.39;100.00
11985;BME280;6052;53.246;10.368;2023-03-26T04:57:15;99821.84;;;9.48;100.00
11985;BME280;6052;53.246;10.368;2023-03-26T04:59:49;99823.75;;;9.47;100.00
11985;BME280;6052;53.246;10.368;2023-03-26T05:02:19;99814.66;;;9.27;100.00
11985;BME280;6052;53.246;10.368;2023-03-26T05:04:48;99818.28;;;9.37;100.00
11985;BME280;6052;53.246;10.368;2023-03-26T05:07:19;99821.91;;;9.53;100.00
11985;BME280;6052;53.246;10.368;2023-03-26T05:09:49;99823.97;;;9.46;100.00
11985;BME280;6052;53.246;10.368;2023-03-26T05:12:18;99823.31;;;9.60;100.00
11985;BME280;6052;53.246;10.368;2023-03-26T05:14:50;99819.56;;;9.56;100.00
11985;BME280;6052;53.246;10.368;2023-03-26T05:17:21;99813.88;;;9.53;100.00
11985;BME280;6052;53.246;10.368;2023-03-26T05:19:52;99816.50;;;9.48;100.00
11985;BME280;6052;53.246;10.368;2023-03-26T05:22:21;99805.56;;;9.28;100.00
11985;BME280;6052;53.246;10.368;2023-03-26T05:24:51;99806.59;;;9.48;100.00
11985;BME280;6052;53.246;10.368;2023-03-26T05:27:21;99809.16;;;9.38;100.00
11985;BME280;6052;53.246;10.368;2023-03-26T05:29:59;99819.38;;;9.41;100.00
11985;BME280;6052;53.246;10.368;2023-03-26T05:32:29;99811.59;;;9.40;100.00
11985;BME280;6052;53.246;10.368;2023-03-26T05:34:59;99810.44;;;9.31;100.00
11985;BME280;6052;53.246;10.368;2023-03-26T05:37:29;99811.72;;;9.28;100.00
11985;BME280;6052;53.246;10.368;2023-03-26T05:40:01;99823.09;;;9.40;100.00
11985;BME280;6052;53.246;10.368;2023-03-26T05:42:32;99817.56;;;9.47;100.00
11985;BME280;6052;53.246;10.368;2023-03-26T05:45:10;99826.78;;;9.34;100.00
11985;BME280;6052;53.246;10.368;2023-03-26T05:47:40;99824.41;;;9.38;100.00
11985;BME280;6052;53.246;10.368;2023-03-26T05:50:10;99823.06;;;9.35;100.00
11985;BME280;6052;53.246;10.368;2023-03-26T05:52:39;99826.91;;;9.44;100.00
11985;BME280;6052;53.246;10.368;2023-03-26T05:55:12;99834.59;;;9.36;100.00
11985;BME280;6052;53.246;10.368;2023-03-26T05:57:46;99832.50;;;9.43;100.00
11985;BME280;6052;53.246;10.368;2023-03-26T06:00:18;99828.16;;;9.37;100.00
11985;BME280;6052;53.246;10.368;2023-03-26T06:02:49;99835.44;;;9.41;100.00
11985;BME280;6052;53.246;10.368;2023-03-26T06:05:22;99822.69;;;9.48;100.00
11985;BME280;6052;53.246;10.368;2023-03-26T06:07:52;99828.53;;;9.45;100.00
11985;BME280;6052;53.246;10.368;2023-03-26T06:10:21;99826.09;;;9.44;100.00
11985;BME280;6052;53.246;10.368;2023-03-26T06:12:51;99833.63;;;9.47;100.00
11985;BME280;6052;53.246;10.368;2023-03-26T06:15:22;99834.69;;;9.46;100.00
11985;BME280;6052;53.246;10.368;2023-03-26T06:17:52;99832.56;;;9.48;100.00
11985;BME280;6052;53.246;10.368;2023-03-26T06:20:21;99832.56;;;9.26;100.00
11985;BME280;6052;53.246;10.368;2023-03-26T06:22:51;99829.91;;;9.26;100.00
11985;BME280;6052;53.246;10.368;2023-03-26T06:25:20;99839.00;;;9.25;100.00
11985;BME280;6052;53.246;10.368;2023-03-26T06:27:49;99838.22;;;9.25;100.00
11985;BME280;6052;53.246;10.368;2023-03-26T06:30:18;99833.81;;;9.19;100.00
11985;BME280;6052;53.246;10.368;2023-03-26T06:32:50;99837.03;;;9.37;100.00
11985;BME280;6052;53.246;10.368;2023-03-26T06:35:20;99839.13;;;9.14;100.00
11985;BME280;6052;53.246;10.368;2023-03-26T06:37:50;99851.59;;;9.25;100.00
11985;BME280;6052;53.246;10.368;2023-03-26T06:40:19;99849.81;;;9.14;100.00
11985;BME280;6052;53.246;10.368;2023-03-26T06:42:48;99849.94;;;9.24;100.00
11985;BME280;6052;53.246;10.368;2023-03-26T06:45:36;99844.28;;;9.20;100.00
11985;BME280;6052;53.246;10.368;2023-03-26T06:48:08;99846.13;;;9.15;100.00
11985;BME280;6052;53.246;10.368;2023-03-26T06:50:37;99839.81;;;9.26;100.00
11985;BME280;6052;53.246;10.368;2023-03-26T06:53:07;99840.25;;;9.18;100.00
11985;BME280;6052;53.246;10.368;2023-03-26T06:55:36;99851.59;;;9.25;100.00
11985;BME280;6052;53.246;10.368;2023-03-26T06:58:09;99852.75;;;9.34;100.00
11985;BME280;6052;53.246;10.368;2023-03-26T07:00:39;99858.50;;;9.42;100.00
11985;BME280;6052;53.246;10.368;2023-03-26T07:03:11;99860.59;;;9.40;100.00
11985;BME280;6052;53.246;10.368;2023-03-26T07:05:42;99861.38;;;9.36;100.00
11985;BME280;6052;53.246;10.368;2023-03-26T07:08:12;99865.66;;;9.37;100.00
11985;BME280;6052;53.246;10.368;2023-03-26T07:10:41;99868.69;;;9.45;100.00
11985;BME280;6052;53.246;10.368;2023-03-26T07:13:11;99865.72;;;9.42;100.00
11985;BME280;6052;53.246;10.368;2023-03-26T07:15:40;99863.03;;;9.42;100.00
11985;BME280;6052;53.246;10.368;2023-03-26T07:18:12;99859.06;;;9.44;100.00
11985;BME280;6052;53.246;10.368;2023-03-26T07:20:43;99854.19;;;9.41;100.00
11985;BME280;6052;53.246;10.368;2023-03-26T07:23:13;99856.31;;;9.39;100.00
11985;BME280;6052;53.246;10.368;2023-03-26T07:25:46;99855.19;;;9.35;100.00
11985;BME280;6052;53.246;10.368;2023-03-26T07:28:22;99853.88;;;9.38;100.00
11985;BME280;6052;53.246;10.368;2023-03-26T07:31:10;99849.66;;;9.42;100.00
11985;BME280;6052;53.246;10.368;2023-03-26T07:33:52;99843.28;;;9.48;100.00
11985;BME280;6052;53.246;10.368;2023-03-26T07:36:33;99843.16;;;9.38;100.00
11985;BME280;6052;53.246;10.368;2023-03-26T07:39:13;99839.75;;;9.42;100.00
11985;BME280;6052;53.246;10.368;2023-03-26T07:41:49;99837.03;;;9.37;100.00
11985;BME280;6052;53.246;10.368;2023-03-26T07:44:28;99837.19;;;9.52;100.00
11985;BME280;6052;53.246;10.368;2023-03-26T07:47:09;99840.94;;;9.51;100.00
11985;BME280;6052;53.246;10.368;2023-03-26T07:49:47;99839.41;;;9.39;100.00
11985;BME280;6052;53.246;10.368;2023-03-26T07:52:17;99840.38;;;9.28;100.00
11985;BME280;6052;53.246;10.368;2023-03-26T07:54:47;99839.47;;;9.44;100.00
11985;BME280;6052;53.246;10.368;2023-03-26T07:57:27;99836.00;;;9.43;100.00
11985;BME280;6052;53.246;10.368;2023-03-26T08:00:03;99835.88;;;9.55;100.00
11985;BME280;6052;53.246;10.368;2023-03-26T08:02:48;99833.81;;;9.62;100.00
11985;BME280;6052;53.246;10.368;2023-03-26T08:05:28;99836.78;;;9.65;100.00
11985;BME280;6052;53.246;10.368;2023-03-26T08:08:05;99834.91;;;9.66;100.00
11985;BME280;6052;53.246;10.368;2023-03-26T08:10:42;99828.78;;;9.70;100.00
11985;BME280;6052;53.246;10.368;2023-03-26T08:13:22;99833.81;;;9.62;100.00
11985;BME280;6052;53.246;10.368;2023-03-26T08:15:59;99834.81;;;9.56;100.00
11985;BME280;6052;53.246;10.368;2023-03-26T08:18:42;99845.69;;;9.71;100.00
11985;BME280;6052;53.246;10.368;2023-03-26T08:21:19;99846.06;;;9.58;100.00
11985;BME280;6052;53.246;10.368;2023-03-26T08:23:59;99841.84;;;9.62;100.00
11985;BME280;6052;53.246;10.368;2023-03-26T08:26:34;99835.34;;;9.58;100.00
11985;BME280;6052;53.246;10.368;2023-03-26T08:29:14;99838.03;;;9.58;100.00
11985;BME280;6052;53.246;10.368;2023-03-26T08:31:47;99833.56;;;9.63;100.00
11985;BME280;6052;53.246;10.368;2023-03-26T08:34:17;99836.94;;;9.54;100.00
11985;BME280;6052;53.246;10.368;2023-03-26T08:36:49;99838.38;;;9.61;100.00
11985;BME280;6052;53.246;10.368;2023-03-26T08:39:19;99839.00;;;9.47;100.00
11985;BME280;6052;53.246;10.368;2023-03-26T08:42:09;99840.06;;;9.46;100.00
11985;BME280;6052;53.246;10.368;2023-03-26T08:48:02;99842.97;;;9.44;100.00
11985;BME280;6052;53.246;10.368;2023-03-26T08:53:55;99838.50;;;9.50;100.00
11985;BME280;6052;53.246;10.368;2023-03-26T08:56:38;99844.78;;;9.39;100.00
11985;BME280;6052;53.246;10.368;2023-03-26T08:59:36;99842.50;;;9.26;100.00
11985;BME280;6052;53.246;10.368;2023-03-26T09:05:47;99844.47;;;9.35;100.00
11985;BME280;6052;53.246;10.368;2023-03-26T09:14:56;99849.59;;;9.37;100.00
11985;BME280;6052;53.246;10.368;2023-03-26T09:20:51;99858.63;;;9.31;100.00
11985;BME280;6052;53.246;10.368;2023-03-26T09:26:24;99847.59;;;9.49;100.00
11985;BME280;6052;53.246;10.368;2023-03-26T09:29:20;99848.44;;;9.54;100.00
11985;BME280;6052;53.246;10.368;2023-03-26T09:32:12;99846.91;;;9.58;99.84
11985;BME280;6052;53.246;10.368;2023-03-26T09:35:02;99852.19;;;9.53;99.14
11985;BME280;6052;53.246;10.368;2023-03-26T09:37:55;99851.25;;;9.64;98.90
11985;BME280;6052;53.246;10.368;2023-03-26T09:40:35;99850.81;;;9.72;98.68
11985;BME280;6052;53.246;10.368;2023-03-26T09:43:41;99858.59;;;9.74;98.64
11985;BME280;6052;53.246;10.368;2023-03-26T09:46:23;99856.72;;;9.53;95.76
11985;BME280;6052;53.246;10.368;2023-03-26T09:52:06;99865.34;;;9.55;95.52
11985;BME280;6052;53.246;10.368;2023-03-26T09:55:05;99865.41;;;9.60;94.65
11985;BME280;6052;53.246;10.368;2023-03-26T09:57:54;99869.59;;;9.51;93.10
11985;BME280;6052;53.246;10.368;2023-03-26T10:00:35;99874.88;;;9.67;94.11
11985;BME280;6052;53.246;10.368;2023-03-26T10:03:19;99868.19;;;9.70;94.94
11985;BME280;6052;53.246;10.368;2023-03-26T10:06:04;99882.53;;;9.59;95.08
11985;BME280;6052;53.246;10.368;2023-03-26T10:08:53;99882.28;;;9.39;92.06
11985;BME280;6052;53.246;10.368;2023-03-26T10:11:39;99870.88;;;9.48;92.89
11985;BME280;6052;53.246;10.368;2023-03-26T10:14:20;99874.69;;;9.31;92.52
11985;BME280;6052;53.246;10.368;2023-03-26T10:16:59;99874.31;;;9.44;92.40
11985;BME280;6052;53.246;10.368;2023-03-26T10:19:50;99871.56;;;9.39;92.19
11985;BME280;6052;53.246;10.368;2023-03-26T10:22:34;99867.16;;;9.49;93.18
11985;BME280;6052;53.246;10.368;2023-03-26T10:25:21;99861.16;;;9.64;92.25
11985;BME280;6052;53.246;10.368;2023-03-26T10:28:03;99864.88;;;9.63;90.37
11985;BME280;6052;53.246;10.368;2023-03-26T10:30:48;99855.94;;;9.52;90.21
11985;BME280;6052;53.246;10.368;2023-03-26T10:33:27;99856.25;;;9.56;89.74
11985;BME280;6052;53.246;10.368;2023-03-26T10:36:14;99863.16;;;9.52;90.61
11985;BME280;6052;53.246;10.368;2023-03-26T10:39:22;99862.66;;;9.55;88.98
11985;BME280;6052;53.246;10.368;2023-03-26T10:42:14;99852.81;;;9.60;88.45
11985;BME280;6052;53.246;10.368;2023-03-26T10:45:10;99862.78;;;9.65;89.73
11985;BME280;6052;53.246;10.368;2023-03-26T10:47:55;99853.72;;;9.71;89.93
11985;BME280;6052;53.246;10.368;2023-03-26T10:50:43;99853.97;;;9.69;89.77
11985;BME280;6052;53.246;10.368;2023-03-26T10:53:27;99844.22;;;9.85;89.42
11985;BME280;6052;53.246;10.368;2023-03-26T10:56:11;99849.69;;;9.95;90.77
11985;BME280;6052;53.246;10.368;2023-03-26T10:58:44;99850.28;;;10.02;89.43
11985;BME280;6052;53.246;10.368;2023-03-26T11:01:23;99851.25;;;9.91;87.58
11985;BME280;6052;53.246;10.368;2023-03-26T11:03:59;99851.88;;;9.98;87.38
11985;BME280;6052;53.246;10.368;2023-03-26T11:06:40;99848.56;;;9.91;88.50
11985;BME280;6052;53.246;10.368;2023-03-26T11:09:21;99864.16;;;9.94;88.66
11985;BME280;6052;53.246;10.368;2023-03-26T11:11:59;99851.50;;;9.89;87.06
11985;BME280;6052;53.246;10.368;2023-03-26T11:14:57;99849.09;;;9.88;85.87
11985;BME280;6052;53.246;10.368;2023-03-26T11:17:38;99851.50;;;9.89;85.18
11985;BME280;6052;53.246;10.368;2023-03-26T11:20:15;99847.66;;;9.80;82.18
11985;BME280;6052;53.246;10.368;2023-03-26T11:23:02;99849.94;;;9.93;83.74
11985;BME280;6052;53.246;10.368;2023-03-26T11:25:45;99847.22;;;9.88;83.09
11985;BME280;6052;53.246;10.368;2023-03-26T11:28:33;99842.00;;;9.77;81.39
11985;BME280;6052;53.246;10.368;2023-03-26T11:31:11;99840.28;;;9.92;80.46
11985;BME280;6052;53.246;10.368;2023-03-26T11:33:50;99839.75;;;9.90;79.47
11985;BME280;6052;53.246;10.368;2023-03-26T11:36:25;99839.19;;;10.15;81.61
11985;BME280;6052;53.246;10.368;2023-03-26T11:39:00;99842.00;;;10.30;84.07
11985;BME280;6052;53.246;10.368;2023-03-26T11:41:31;99838.28;;;10.36;82.34
11985;BME280;6052;53.246;10.368;2023-03-26T11:44:09;99840.22;;;10.40;84.46
11985;BME280;6052;53.246;10.368;2023-03-26T11:46:43;99839.03;;;10.26;83.46
11985;BME280;6052;53.246;10.368;2023-03-26T11:49:17;99844.88;;;10.23;83.48
11985;BME280;6052;53.246;10.368;2023-03-26T11:51:47;99842.59;;;10.37;82.41
11985;BME280;6052;53.246;10.368;2023-03-26T11:54:17;99834.97;;;10.24;82.18
11985;BME280;6052;53.246;10.368;2023-03-26T11:56:50;99838.88;;;10.43;83.39
11985;BME280;6052;53.246;10.368;2023-03-26T11:59:36;99839.44;;;10.45;81.02
11985;BME280;6052;53.246;10.368;2023-03-26T12:02:25;99838.34;;;10.46;78.04
11985;BME280;6052;53.246;10.368;2023-03-26T12:05:11;99839.75;;;10.53;81.15
11985;BME280;6052;53.246;10.368;2023-03-26T12:07:45;99834.75;;;10.62;79.95
11985;BME280;6052;53.246;10.368;2023-03-26T12:10:24;99840.69;;;10.69;80.44
11985;BME280;6052;53.246;10.368;2023-03-26T12:12:56;99829.91;;;10.64;78.42
11985;BME280;6052;53.246;10.368;2023-03-26T12:15:29;99831.19;;;10.56;79.93
11985;BME280;6052;53.246;10.368;2023-03-26T12:18:19;99833.34;;;10.54;81.94
11985;BME280;6052;53.246;10.368;2023-03-26T12:21:02;99827.63;;;10.46;82.58
11985;BME280;6052;53.246;10.368;2023-03-26T12:23:45;99831.69;;;10.53;82.45
11985;BME280;6052;53.246;10.368;2023-03-26T12:26:20;99831.25;;;10.66;82.18
11985;BME280;6052;53.246;10.368;2023-03-26T12:29:04;99824.47;;;10.54;82.33
11985;BME280;6052;53.246;10.368;2023-03-26T12:31:56;99830.69;;;10.59;82.74
11985;BME280;6052;53.246;10.368;2023-03-26T12:34:33;99835.09;;;10.75;83.14
11985;BME280;6052;53.246;10.368;2023-03-26T12:37:05;99828.38;;;10.73;81.32
11985;BME280;6052;53.246;10.368;2023-03-26T12:39:36;99825.63;;;10.63;76.13
11985;BME280;6052;53.246;10.368;2023-03-26T12:42:28;99822.34;;;10.61;77.62
11985;BME280;6052;53.246;10.368;2023-03-26T12:45:19;99820.56;;;10.71;75.83
11985;BME280;6052;53.246;10.368;2023-03-26T12:47:53;99822.53;;;10.86;76.20
11985;BME280;6052;53.246;10.368;2023-03-26T12:50:39;99827.69;;;10.97;79.16
11985;BME280;6052;53.246;10.368;2023-03-26T12:53:31;99823.09;;;10.88;79.06
11985;BME280;6052;53.246;10.368;2023-03-26T12:56:11;99817.19;;;10.91;80.03
11985;BME280;6052;53.246;10.368;2023-03-26T12:58:58;99827.53;;;10.72;80.27
11985;BME280;6052;53.246;10.368;2023-03-26T13:01:40;99824.19;;;10.92;81.29
11985;BME280;6052;53.246;10.368;2023-03-26T13:04:40;99821.97;;;10.84;80.50
11985;BME280;6052;53.246;10.368;2023-03-26T13:07:45;99818.97;;;10.75;80.65
11985;BME280;6052;53.246;10.368;2023-03-26T13:10:32;99822.78;;;10.79;80.50
11985;BME280;6052;53.246;10.368;2023-03-26T13:13:13;99831.25;;;10.66;80.56
11985;BME280;6052;53.246;10.368;2023-03-26T13:15:49;99827.50;;;10.67;79.70
11985;BME280;6052;53.246;10.368;2023-03-26T13:18:41;99816.06;;;10.82;79.81
11985;BME280;6052;53.246;10.368;2023-03-26T13:21:18;99818.72;;;10.77;79.09
11985;BME280;6052;53.246;10.368;2023-03-26T13:23:53;99810.09;;;10.75;78.99
11985;BME280;6052;53.246;10.368;2023-03-26T13:26:42;99812.78;;;10.75;79.56
11985;BME280;6052;53.246;10.368;2023-03-26T13:29:20;99816.00;;;10.67;77.25
11985;BME280;6052;53.246;10.368;2023-03-26T13:31:54;99806.03;;;10.67;78.68
11985;BME280;6052;53.246;10.368;2023-03-26T13:34:35;99815.38;;;10.60;78.97
11985;BME280;6052;53.246;10.368;2023-03-26T13:37:13;99820.47;;;10.56;78.39
11985;BME280;6052;53.246;10.368;2023-03-26T13:39:51;99818.09;;;10.65;78.41
11985;BME280;6052;53.246;10.368;2023-03-26T13:42:36;99815.13;;;10.61;77.74
11985;BME280;6052;53.246;10.368;2023-03-26T13:45:19;99808.25;;;10.75;78.42
11985;BME280;6052;53.246;10.368;2023-03-26T13:47:53;99796.16;;;10.73;75.92
11985;BME280;6052;53.246;10.368;2023-03-26T13:50:28;99800.28;;;10.90;76.77
11985;BME280;6052;53.246;10.368;2023-03-26T13:53:04;99808.56;;;10.84;77.79
11985;BME280;6052;53.246;10.368;2023-03-26T13:55:36;99815.91;;;10.98;77.39
11985;BME280;6052;53.246;10.368;2023-03-26T13:58:11;99808.31;;;10.90;77.44
11985;BME280;6052;53.246;10.368;2023-03-26T14:00:50;99806.84;;;10.68;76.28
11985;BME280;6052;53.246;10.368;2023-03-26T14:03:28;99802.59;;;10.72;76.05
11985;BME280;6052;53.246;10.368;2023-03-26T14:06:06;99805.63;;;10.85;76.09
11985;BME280;6052;53.246;10.368;2023-03-26T14:08:43;99808.06;;;10.92;75.62
11985;BME280;6052;53.246;10.368;2023-03-26T14:11:19;99799.44;;;10.85;76.51